Time;durP1;ratioP1;P1;durP2;ratioP2;P2;SDS_P1;SDS_P2;PMS_P1;PMS_P2;Temp;Humidity;BMP_temperature;BMP_pressure;BME280_temperature;BME280_humidity;BME280_pressure;Samples;Min_cycle;Max_cycle;Signal;HPM_P1;HPM_P2
2022/11/19 00:01:09;;;;;;;147.20;42.47;;;;;;;11.87;100.00;98270.47;5070813;28;20758;-56
2022/11/19 00:03:38;;;;;;;149.23;42.93;;;;;;;11.81;100.00;98258.66;5070615;28;20236;-58
2022/11/19 00:06:07;;;;;;;139.17;41.20;;;;;;;11.80;100.00;98263.94;5070355;28;20212;-56
2022/11/19 00:08:34;;;;;;;145.63;42.37;;;;;;;11.80;100.00;98248.34;5070498;28;20271;-57
2022/11/19 00:11:09;;;;;;;154.73;43.23;;;;;;;11.75;100.00;98258.97;5070433;28;20267;-57
2022/11/19 00:13:35;;;;;;;151.30;44.83;;;;;;;11.75;100.00;98265.91;5070420;28;20294;-57
2022/11/19 00:16:05;;;;;;;143.67;44.30;;;;;;;11.79;100.00;98267.47;5070709;28;20726;-56
2022/11/19 00:18:32;;;;;;;150.57;43.37;;;;;;;11.81;100.00;98268.22;5070682;28;20202;-56
2022/11/19 00:21:06;;;;;;;143.20;42.50;;;;;;;11.80;100.00;98269.16;5070546;28;20231;-53
2022/11/19 00:23:33;;;;;;;136.47;39.07;;;;;;;11.82;100.00;98262.09;5070509;28;20203;-54
2022/11/19 00:26:06;;;;;;;134.13;40.37;;;;;;;11.94;100.00;98271.84;5070396;28;20238;-53
2022/11/19 00:28:34;;;;;;;130.47;40.80;;;;;;;11.90;100.00;98273.78;5070492;28;20282;-53
2022/11/19 00:31:02;;;;;;;135.90;40.40;;;;;;;11.86;100.00;98281.81;5070170;28;20246;-54
2022/11/19 00:33:30;;;;;;;134.63;39.40;;;;;;;11.88;100.00;98272.16;5070518;28;20200;-54
2022/11/19 00:35:57;;;;;;;143.57;40.10;;;;;;;11.88;100.00;98274.75;5070246;28;20206;-53
2022/11/19 00:38:24;;;;;;;132.73;39.93;;;;;;;11.91;100.00;98287.59;5070455;28;20212;-53
2022/11/19 00:40:51;;;;;;;141.97;40.63;;;;;;;11.85;100.00;98293.97;5070214;28;20228;-57
2022/11/19 00:46:04;;;;;;;132.93;39.13;;;;;;;11.77;100.00;98314.34;5069579;28;20191;-57
2022/11/19 00:48:31;;;;;;;138.30;37.97;;;;;;;11.78;100.00;98307.38;5069551;28;20289;-57
2022/11/19 00:50:58;;;;;;;127.53;37.60;;;;;;;11.75;100.00;98317.91;5069396;28;20202;-52
2022/11/19 00:53:25;;;;;;;129.27;39.40;;;;;;;11.76;100.00;98309.22;5069362;28;20199;-52
2022/11/19 00:55:52;;;;;;;124.57;36.80;;;;;;;11.75;100.00;98310.97;5069431;28;20583;-53
2022/11/19 00:58:20;;;;;;;135.77;37.80;;;;;;;11.69;100.00;98324.25;5069375;28;20291;-54
2022/11/19 01:00:47;;;;;;;128.73;37.13;;;;;;;11.72;100.00;98318.06;5069356;28;20780;-53
2022/11/19 01:03:14;;;;;;;124.10;37.13;;;;;;;11.64;100.00;98321.06;5069277;28;20796;-53
2022/11/19 01:05:41;;;;;;;134.13;37.77;;;;;;;11.53;100.00;98321.59;5069297;28;20206;-53
2022/11/19 01:08:08;;;;;;;114.33;36.00;;;;;;;11.56;100.00;98321.47;5069323;28;20316;-53
2022/11/19 01:10:35;;;;;;;110.53;36.30;;;;;;;11.57;100.00;98325.75;5069275;28;20202;-53
2022/11/19 01:15:49;;;;;;;112.60;34.67;;;;;;;11.40;100.00;98323.16;5069285;28;20827;-57
2022/11/19 01:18:17;;;;;;;98.60;33.57;;;;;;;11.42;100.00;98336.91;5069429;28;20249;-57
2022/11/19 01:20:45;;;;;;;97.23;33.70;;;;;;;11.44;100.00;98342.88;5069091;28;20311;-58
2022/11/19 01:23:12;;;;;;;109.63;34.63;;;;;;;11.43;100.00;98342.94;5069167;28;20196;-58
2022/11/19 01:25:39;;;;;;;106.67;34.33;;;;;;;11.24;100.00;98327.47;5069299;28;20196;-57
2022/11/19 01:28:07;;;;;;;94.13;31.57;;;;;;;11.48;100.00;98373.00;5069073;28;20195;-52
2022/11/19 01:30:34;;;;;;;99.13;33.00;;;;;;;11.41;100.00;98373.34;5069525;28;20192;-53
2022/11/19 01:33:03;;;;;;;91.23;32.17;;;;;;;11.46;100.00;98363.59;5068279;28;20585;-54
2022/11/19 01:35:30;;;;;;;86.50;30.90;;;;;;;11.42;100.00;98377.63;5068983;28;20571;-54
2022/11/19 01:37:59;;;;;;;91.83;32.90;;;;;;;11.37;100.00;98380.50;5069238;28;20696;-54
2022/11/19 01:40:26;;;;;;;90.13;32.90;;;;;;;11.31;100.00;98391.16;5069120;28;20228;-53
2022/11/19 01:42:54;;;;;;;87.27;33.47;;;;;;;11.43;100.00;98403.53;5068829;28;20200;-54
2022/11/19 01:45:29;;;;;;;81.43;31.70;;;;;;;11.39;100.00;98406.41;5068962;28;20200;-54
2022/11/19 01:47:59;;;;;;;78.23;31.83;;;;;;;11.34;100.00;98419.59;5069189;28;20203;-56
2022/11/19 01:50:31;;;;;;;81.37;32.97;;;;;;;11.48;100.00;98414.56;5069088;28;20189;-56
2022/11/19 01:52:58;;;;;;;75.67;30.80;;;;;;;11.57;100.00;98413.25;5069081;28;20728;-57
2022/11/19 01:55:27;;;;;;;83.33;32.30;;;;;;;11.59;100.00;98422.66;5068847;28;20223;-57
2022/11/19 01:57:56;;;;;;;83.17;33.13;;;;;;;11.57;100.00;98424.50;5069139;28;20200;-58
2022/11/19 02:00:23;;;;;;;77.60;32.13;;;;;;;11.54;100.00;98441.97;5068695;28;20232;-57
2022/11/19 02:02:50;;;;;;;77.17;31.93;;;;;;;11.60;100.00;98434.75;5068844;28;20206;-58
2022/11/19 02:05:18;;;;;;;73.57;31.67;;;;;;;11.56;100.00;98453.16;5070662;28;20196;-57
2022/11/19 02:07:53;;;;;;;71.03;30.77;;;;;;;11.62;100.00;98458.88;5072273;28;20238;-57
2022/11/19 02:10:25;;;;;;;71.37;29.93;;;;;;;11.73;100.00;98449.72;5072612;28;20195;-57
2022/11/19 02:13:04;;;;;;;66.90;29.97;;;;;;;11.71;100.00;98448.94;5072430;28;20717;-57
2022/11/19 02:15:39;;;;;;;64.53;29.63;;;;;;;11.77;100.00;98451.25;5072523;28;20646;-56
2022/11/19 02:18:40;;;;;;;60.13;30.10;;;;;;;11.80;100.00;98445.91;5072365;28;20195;-52
2022/11/19 02:21:22;;;;;;;71.37;31.10;;;;;;;11.81;100.00;98450.19;5072282;28;20234;-56
2022/11/19 02:24:06;;;;;;;60.63;30.03;;;;;;;11.80;100.00;98440.72;5071597;28;20195;-56
2022/11/19 02:27:05;;;;;;;54.60;29.63;;;;;;;11.93;100.00;98439.19;5072091;28;20199;-56
2022/11/19 02:30:11;;;;;;;57.57;29.20;;;;;;;11.94;100.00;98433.06;5072443;28;20200;-56
2022/11/19 02:32:50;;;;;;;57.27;29.00;;;;;;;11.95;100.00;98425.19;5071847;28;20282;-56
2022/11/19 02:35:24;;;;;;;54.03;28.13;;;;;;;11.92;100.00;98427.09;5071848;28;20200;-57
2022/11/19 02:37:58;;;;;;;48.67;27.70;;;;;;;11.88;100.00;98417.75;5071838;28;20199;-56
2022/11/19 02:40:30;;;;;;;47.10;26.90;;;;;;;11.82;100.00;98418.09;5071924;28;20691;-56
2022/11/19 02:43:08;;;;;;;49.23;27.53;;;;;;;11.79;100.00;98431.22;5071829;28;20200;-55
2022/11/19 02:45:37;;;;;;;52.80;27.23;;;;;;;11.75;100.00;98422.75;5071401;28;20208;-56
2022/11/19 02:48:10;;;;;;;47.30;25.87;;;;;;;11.75;100.00;98420.13;5071906;28;20582;-56
2022/11/19 02:50:43;;;;;;;49.47;26.93;;;;;;;11.70;100.00;98426.47;5071807;28;20225;-57
2022/11/19 02:53:10;;;;;;;49.57;26.80;;;;;;;11.66;100.00;98433.56;5071476;28;20207;-55
2022/11/19 02:55:38;;;;;;;46.50;25.97;;;;;;;11.66;100.00;98433.56;5071496;28;20292;-56
2022/11/19 02:58:10;;;;;;;46.40;25.97;;;;;;;11.72;100.00;98437.63;5071360;28;20633;-57
2022/11/19 03:06:18;;;;;;;48.43;25.07;;;;;;;11.69;100.00;98440.38;5071041;28;20198;-56
2022/11/19 03:08:46;;;;;;;43.43;24.77;;;;;;;11.65;100.00;98437.94;5071255;28;20236;-56
2022/11/19 03:11:20;;;;;;;39.87;25.23;;;;;;;11.70;100.00;98445.50;5071180;28;20235;-53
2022/11/19 03:16:41;;;;;;;38.87;25.70;;;;;;;11.78;100.00;98439.94;5071196;28;20223;-53
2022/11/19 03:19:18;;;;;;;48.33;26.23;;;;;;;11.83;100.00;98450.97;5071232;28;20744;-52
2022/11/19 03:21:51;;;;;;;40.50;25.23;;;;;;;11.80;100.00;98451.13;5066891;28;20242;-52
2022/11/19 03:24:23;;;;;;;52.37;25.97;;;;;;;11.81;100.00;98476.19;5070723;28;20228;-52
2022/11/19 03:26:55;;;;;;;44.60;25.63;;;;;;;11.78;100.00;98491.94;5070531;28;20224;-52
2022/11/19 03:29:26;;;;;;;49.17;27.70;;;;;;;11.76;100.00;98485.97;5067481;28;20743;-57
2022/11/19 03:31:59;;;;;;;46.03;25.43;;;;;;;11.81;100.00;98489.19;5070014;28;20231;-55
2022/11/19 03:34:30;;;;;;;51.37;27.47;;;;;;;11.79;100.00;98493.63;5067439;28;20228;-56
2022/11/19 03:37:01;;;;;;;46.07;26.57;;;;;;;11.88;100.00;98487.97;5069798;28;20215;-56
2022/11/19 03:39:28;;;;;;;49.67;25.63;;;;;;;11.99;100.00;98506.47;5070431;28;20242;-56
2022/11/19 03:41:57;;;;;;;42.27;25.07;;;;;;;12.00;100.00;98500.34;5069483;28;20235;-55
2022/11/19 03:44:29;;;;;;;46.37;26.10;;;;;;;11.97;100.00;98505.69;5070535;28;20224;-56
2022/11/19 03:46:59;;;;;;;44.53;26.00;;;;;;;11.98;100.00;98528.19;5070275;28;20683;-52
2022/11/19 03:49:33;;;;;;;41.70;25.17;;;;;;;12.15;100.00;98528.19;5069909;28;20233;-52
2022/11/19 03:52:05;;;;;;;48.17;26.93;;;;;;;11.95;100.00;98523.16;5069803;28;20626;-53
2022/11/19 03:54:33;;;;;;;43.17;26.27;;;;;;;11.84;100.00;98523.69;5070371;28;20716;-51
2022/11/19 03:57:00;;;;;;;59.03;31.20;;;;;;;11.81;100.00;98544.63;5069865;28;20307;-51
2022/11/19 03:59:28;;;;;;;70.57;39.13;;;;;;;11.69;100.00;98545.19;5070146;28;20612;-52
2022/11/19 04:01:58;;;;;;;56.67;33.33;;;;;;;11.77;100.00;98550.03;5069060;28;20223;-52
2022/11/19 04:04:37;;;;;;;64.17;36.93;;;;;;;11.79;100.00;98556.00;5069429;28;20262;-52
2022/11/19 04:07:11;;;;;;;64.73;35.37;;;;;;;11.80;100.00;98558.53;5069120;28;20785;-52
2022/11/19 04:09:38;;;;;;;82.07;45.50;;;;;;;11.76;100.00;98553.56;5069003;28;20239;-57
2022/11/19 04:12:07;;;;;;;78.83;41.10;;;;;;;11.62;100.00;98547.22;5068405;28;20266;-52
2022/11/19 04:14:34;;;;;;;88.27;45.50;;;;;;;11.69;100.00;98542.59;5069661;28;20224;-53
2022/11/19 04:17:01;;;;;;;79.27;41.23;;;;;;;11.68;100.00;98547.88;5070283;28;20474;-52
2022/11/19 04:19:27;;;;;;;79.80;38.37;;;;;;;11.58;100.00;98552.66;5067693;28;20200;-52
2022/11/19 04:21:54;;;;;;;76.80;37.90;;;;;;;11.57;100.00;98570.03;5067119;28;20601;-52
2022/11/19 04:24:23;;;;;;;67.70;35.80;;;;;;;11.51;100.00;98588.47;5067867;28;20192;-53
2022/11/19 04:26:50;;;;;;;80.07;35.20;;;;;;;11.51;100.00;98582.47;5068739;28;20192;-53
2022/11/19 04:29:17;;;;;;;78.63;35.07;;;;;;;11.43;100.00;98581.97;5068688;28;20192;-52
2022/11/19 04:31:44;;;;;;;67.77;31.40;;;;;;;11.42;100.00;98591.53;5068831;28;20677;-53
2022/11/19 04:34:10;;;;;;;73.37;31.90;;;;;;;11.30;100.00;98581.69;5068336;28;20278;-53
2022/11/19 04:36:40;;;;;;;82.27;33.10;;;;;;;11.32;100.00;98587.69;5063527;28;20723;-53
2022/11/19 04:39:08;;;;;;;73.67;33.23;;;;;;;11.31;100.00;98593.78;5067838;28;20212;-54
2022/11/19 04:41:37;;;;;;;65.97;30.33;;;;;;;11.36;100.00;98591.81;5067888;28;20228;-53
2022/11/19 04:44:04;;;;;;;70.17;31.13;;;;;;;11.37;100.00;98597.88;5067966;28;20253;-55
2022/11/19 04:46:31;;;;;;;77.43;31.77;;;;;;;11.23;100.00;98606.28;5067643;28;20230;-53
2022/11/19 04:48:58;;;;;;;71.47;30.90;;;;;;;11.29;100.00;98598.19;5068255;28;20215;-53
2022/11/19 04:51:25;;;;;;;77.43;32.83;;;;;;;11.30;100.00;98599.88;5067977;28;20216;-53
2022/11/19 04:53:52;;;;;;;68.27;31.33;;;;;;;11.20;100.00;98594.28;5067169;28;20780;-53
2022/11/19 04:56:19;;;;;;;69.60;33.30;;;;;;;11.22;100.00;98609.78;5066378;28;20238;-53
2022/11/19 04:58:47;;;;;;;72.50;33.90;;;;;;;11.22;100.00;98613.25;5068433;28;20196;-53
2022/11/19 05:01:14;;;;;;;70.10;34.33;;;;;;;11.23;100.00;98624.47;5067983;28;20216;-52
2022/11/19 05:03:41;;;;;;;74.03;35.10;;;;;;;11.18;100.00;98623.81;5068517;28;20219;-57
2022/11/19 05:06:08;;;;;;;72.90;34.47;;;;;;;11.16;100.00;98618.72;5068354;28;20590;-57
2022/11/19 05:08:35;;;;;;;86.43;38.37;;;;;;;11.16;100.00;98630.88;5068116;28;20227;-53
2022/11/19 05:11:02;;;;;;;80.43;36.43;;;;;;;11.18;100.00;98636.81;5061442;28;20219;-53
2022/11/19 05:13:29;;;;;;;76.07;36.40;;;;;;;11.14;100.00;98651.72;5066328;28;20227;-58
2022/11/19 05:15:57;;;;;;;84.47;36.60;;;;;;;11.22;100.00;98656.53;5066361;28;20230;-56
2022/11/19 05:18:24;;;;;;;84.40;35.20;;;;;;;11.19;100.00;98654.91;5066777;28;20227;-57
2022/11/19 05:20:51;;;;;;;95.20;37.23;;;;;;;11.19;100.00;98654.09;5065725;28;20215;-57
2022/11/19 05:23:18;;;;;;;96.83;35.77;;;;;;;11.22;100.00;98664.34;5066162;28;20206;-56
2022/11/19 05:25:45;;;;;;;116.43;36.40;;;;;;;11.14;100.00;98667.28;5067457;28;20564;-56
2022/11/19 05:28:12;;;;;;;99.70;37.47;;;;;;;11.13;100.00;98677.75;5067698;28;20192;-53
2022/11/19 05:30:39;;;;;;;106.17;35.83;;;;;;;10.98;100.00;98675.81;5067879;28;20196;-52
2022/11/19 05:33:08;;;;;;;97.17;37.10;;;;;;;10.96;100.00;98677.63;5067662;28;20305;-53
2022/11/19 05:35:35;;;;;;;124.60;36.87;;;;;;;10.90;100.00;98673.56;5067712;28;20200;-53
2022/11/19 05:38:02;;;;;;;83.30;36.47;;;;;;;10.91;100.00;98681.28;5068045;28;20192;-57
2022/11/19 05:40:29;;;;;;;101.67;33.57;;;;;;;10.88;100.00;98691.78;5070523;28;20711;-58
2022/11/19 05:42:55;;;;;;;80.73;33.63;;;;;;;10.72;100.00;98682.16;5072590;28;20230;-57
2022/11/19 05:45:22;;;;;;;74.17;33.77;;;;;;;10.69;100.00;98703.88;5089835;28;20233;-57
2022/11/19 05:47:54;;;;;;;77.27;34.57;;;;;;;10.79;100.00;98722.50;5092504;28;20203;-57
2022/11/19 05:50:22;;;;;;;81.03;34.00;;;;;;;10.73;100.00;98714.94;5093149;28;20191;-56
2022/11/19 05:52:49;;;;;;;64.70;32.80;;;;;;;10.79;100.00;98725.94;5092793;28;20199;-58
2022/11/19 05:55:17;;;;;;;64.33;32.57;;;;;;;10.82;100.00;98727.56;5092676;28;20290;-57
2022/11/19 05:57:44;;;;;;;55.00;30.13;;;;;;;10.84;100.00;98728.31;5089818;28;20196;-56
2022/11/19 06:00:12;;;;;;;43.23;26.40;;;;;;;10.76;100.00;98728.66;5071998;28;20214;-57
2022/11/19 06:02:39;;;;;;;43.27;25.37;;;;;;;10.73;100.00;98746.09;5072074;28;20228;-57
2022/11/19 06:05:06;;;;;;;45.43;26.87;;;;;;;10.64;100.00;98747.31;5071828;28;20697;-57
2022/11/19 06:07:35;;;;;;;49.27;26.30;;;;;;;10.69;100.00;98760.13;5071248;28;20219;-58
2022/11/19 06:10:02;;;;;;;45.17;26.03;;;;;;;10.77;100.00;98763.25;5071257;28;20277;-57
2022/11/19 06:12:29;;;;;;;43.13;26.80;;;;;;;10.84;100.00;98777.63;5071135;28;20283;-56
2022/11/19 06:14:55;;;;;;;53.63;27.53;;;;;;;10.85;100.00;98776.72;5072140;28;20192;-57
2022/11/19 06:17:23;;;;;;;42.93;26.47;;;;;;;10.84;100.00;98781.09;5070885;28;20697;-56
2022/11/19 06:19:50;;;;;;;42.50;26.23;;;;;;;10.88;100.00;98782.66;5070168;28;20211;-57
2022/11/19 06:22:17;;;;;;;37.53;24.10;;;;;;;10.98;100.00;98787.44;5071323;28;20299;-57
2022/11/19 06:24:45;;;;;;;40.77;24.87;;;;;;;11.06;100.00;98786.22;5071746;28;20575;-53
2022/11/19 06:27:12;;;;;;;46.90;27.07;;;;;;;11.06;100.00;98781.03;5072178;28;20635;-52
2022/11/19 06:29:39;;;;;;;45.80;25.80;;;;;;;11.10;100.00;98787.78;5072157;28;20200;-53
2022/11/19 06:32:06;;;;;;;50.47;27.00;;;;;;;11.12;100.00;98787.72;5072054;28;20677;-52
2022/11/19 06:34:32;;;;;;;46.57;25.93;;;;;;;11.16;100.00;98789.28;5071875;28;20600;-51
2022/11/19 06:36:59;;;;;;;42.50;25.03;;;;;;;11.18;100.00;98793.50;5071614;28;20242;-53
2022/11/19 06:39:26;;;;;;;40.90;26.10;;;;;;;11.21;100.00;98795.13;5071946;28;20486;-53
2022/11/19 06:42:34;;;;;;;38.13;23.73;;;;;;;11.31;100.00;98801.59;5071812;28;20624;-53
2022/11/19 06:44:41;;;;;;;33.80;23.43;;;;;;;11.41;100.00;98804.63;5071810;28;20593;-53
2022/11/19 06:47:08;;;;;;;38.67;25.33;;;;;;;11.29;100.00;98798.22;5071779;28;20192;-53
2022/11/19 06:49:35;;;;;;;39.17;25.13;;;;;;;11.33;100.00;98804.13;5071669;28;20200;-52
2022/11/19 06:52:02;;;;;;;38.83;26.03;;;;;;;11.38;100.00;98807.41;5071440;28;20192;-52
2022/11/19 06:54:29;;;;;;;39.60;25.90;;;;;;;11.44;100.00;98797.56;5071681;28;20649;-53
2022/11/19 06:56:57;;;;;;;36.93;26.27;;;;;;;11.65;100.00;98808.78;5071493;28;20283;-52
2022/11/19 06:59:24;;;;;;;39.17;25.30;;;;;;;11.69;100.00;98809.50;5071363;28;20208;-52
2022/11/19 07:01:51;;;;;;;40.17;27.23;;;;;;;11.69;100.00;98812.09;5070451;28;20222;-57
2022/11/19 07:04:18;;;;;;;38.87;26.37;;;;;;;11.67;100.00;98813.91;5071266;28;20208;-56
2022/11/19 07:06:45;;;;;;;37.33;25.67;;;;;;;11.70;100.00;98813.78;5067837;28;20854;-56
2022/11/19 07:09:12;;;;;;;42.43;27.30;;;;;;;11.77;100.00;98810.00;5069810;28;20302;-57
2022/11/19 07:11:39;;;;;;;43.80;27.30;;;;;;;11.88;100.00;98811.22;5070524;28;20224;-56
2022/11/19 07:14:07;;;;;;;42.17;27.10;;;;;;;12.02;100.00;98818.41;5070854;28;20311;-57
2022/11/19 07:16:36;;;;;;;52.23;28.87;;;;;;;12.19;100.00;98828.84;5070018;28;20239;-51
2022/11/19 07:19:05;;;;;;;44.97;27.17;;;;;;;12.36;100.00;98830.69;5068585;28;20211;-55
2022/11/19 07:21:32;;;;;;;39.80;26.43;;;;;;;12.39;100.00;98824.50;5070149;28;20310;-52
2022/11/19 07:24:00;;;;;;;46.90;28.00;;;;;;;12.45;100.00;98843.25;5070165;28;20220;-53
2022/11/19 07:26:27;;;;;;;40.83;26.20;;;;;;;12.59;100.00;98821.78;5070189;28;20228;-53
2022/11/19 07:28:54;;;;;;;47.70;27.37;;;;;;;12.53;100.00;98830.72;5070439;28;20328;-54
2022/11/19 07:31:23;;;;;;;38.60;26.17;;;;;;;12.62;100.00;98834.66;5069833;28;20220;-53
2022/11/19 07:33:50;;;;;;;42.53;27.33;;;;;;;12.74;100.00;98839.28;5070260;28;20282;-54
2022/11/19 07:36:17;;;;;;;39.67;25.83;;;;;;;12.84;100.00;98832.72;5070400;28;20310;-54
2022/11/19 07:38:44;;;;;;;41.87;27.47;;;;;;;12.88;100.00;98820.38;5070568;28;20220;-54
2022/11/19 07:43:52;;;;;;;38.77;26.60;;;;;;;12.98;100.00;98845.88;5049323;28;20228;-54
2022/11/19 07:46:19;;;;;;;42.50;26.13;;;;;;;12.84;100.00;98837.06;5050671;28;20217;-58
2022/11/19 07:48:47;;;;;;;41.17;27.80;;;;;;;12.85;100.00;98842.22;5050409;28;20216;-57
2022/11/19 07:51:14;;;;;;;40.50;28.33;;;;;;;12.90;100.00;98863.66;5050649;28;20224;-58
2022/11/19 07:53:41;;;;;;;38.20;26.87;;;;;;;13.05;100.00;98855.09;5056536;28;20222;-57
2022/11/19 07:56:09;;;;;;;41.73;26.90;;;;;;;13.18;100.00;98859.75;5068104;28;20215;-57
2022/11/19 07:58:36;;;;;;;43.40;27.70;;;;;;;13.27;100.00;98873.16;5069575;28;20296;-58
2022/11/19 08:01:08;;;;;;;40.37;27.23;;;;;;;13.41;100.00;98864.66;5068866;28;20215;-57
2022/11/19 08:03:35;;;;;;;40.63;28.23;;;;;;;13.50;100.00;98864.16;5065942;28;20226;-58
2022/11/19 08:06:04;;;;;;;49.77;31.20;;;;;;;13.64;100.00;98881.72;5069530;28;20614;-57
2022/11/19 08:08:31;;;;;;;48.57;30.00;;;;;;;13.72;100.00;98875.19;5069500;28;20600;-58
2022/11/19 08:11:02;;;;;;;60.03;30.83;;;;;;;13.74;100.00;98880.31;5068964;28;20228;-57
2022/11/19 08:13:29;;;;;;;42.90;28.73;;;;;;;13.78;100.00;98874.00;5067899;28;20224;-59
2022/11/19 08:15:59;;;;;;;48.30;30.67;;;;;;;13.76;100.00;98879.34;5068632;28;20307;-58
2022/11/19 08:18:25;;;;;;;51.30;31.37;;;;;;;13.70;100.00;98877.03;5069272;28;20216;-59
2022/11/19 08:20:52;;;;;;;44.93;28.73;;;;;;;13.94;100.00;98867.09;5069522;28;20223;-59
2022/11/19 08:23:22;;;;;;;48.63;29.03;;;;;;;13.98;100.00;98862.56;5068642;28;20627;-59
2022/11/19 08:25:51;;;;;;;42.80;28.10;;;;;;;13.97;100.00;98863.47;5068465;28;20704;-59
2022/11/19 08:28:18;;;;;;;42.03;27.60;;;;;;;14.04;100.00;98875.25;5068981;28;20649;-58
2022/11/19 08:30:46;;;;;;;47.90;28.53;;;;;;;14.04;100.00;98878.72;5069563;28;20224;-58
2022/11/19 08:33:13;;;;;;;45.90;28.53;;;;;;;14.02;100.00;98866.66;5069963;28;20224;-58
2022/11/19 08:35:41;;;;;;;41.17;27.47;;;;;;;14.18;100.00;98883.22;5075670;28;20184;-59
2022/11/19 08:38:09;;;;;;;42.07;28.17;;;;;;;14.16;100.00;98890.28;5067449;28;20585;-59
2022/11/19 08:40:37;;;;;;;39.83;26.60;;;;;;;14.24;100.00;98900.28;5068051;28;20192;-59
2022/11/19 08:43:03;;;;;;;41.17;26.70;;;;;;;14.30;100.00;98892.16;5069535;28;20646;-57
2022/11/19 08:45:32;;;;;;;42.10;27.87;;;;;;;14.33;100.00;98903.28;5069513;28;20203;-56
2022/11/19 08:48:01;;;;;;;47.03;30.73;;;;;;;14.41;100.00;98911.56;5069230;28;20202;-55
2022/11/19 08:50:28;;;;;;;39.97;25.50;;;;;;;14.41;100.00;98908.94;5069039;28;20203;-55
2022/11/19 08:52:57;;;;;;;41.73;27.67;;;;;;;14.51;100.00;98906.69;5069410;28;20327;-55
2022/11/19 08:55:24;;;;;;;43.63;28.53;;;;;;;14.73;100.00;98911.56;5067948;28;20204;-54
2022/11/19 08:57:59;;;;;;;45.70;28.53;;;;;;;14.80;100.00;98912.91;5068255;28;20336;-57
2022/11/19 09:00:26;;;;;;;56.27;37.47;;;;;;;14.80;100.00;98908.53;5066023;28;20637;-55
2022/11/19 09:02:53;;;;;;;43.77;28.60;;;;;;;14.90;100.00;98908.84;5067571;28;20247;-55
2022/11/19 09:05:20;;;;;;;48.07;28.80;;;;;;;15.04;100.00;98913.31;5065359;28;20191;-53
2022/11/19 09:07:47;;;;;;;46.13;28.97;;;;;;;15.13;100.00;98913.63;5065774;28;20802;-53
2022/11/19 09:10:14;;;;;;;44.37;28.63;;;;;;;15.13;100.00;98910.16;5067738;28;20202;-52
2022/11/19 09:12:40;;;;;;;49.00;29.97;;;;;;;15.11;100.00;98909.44;5049026;28;20721;-53
2022/11/19 09:15:10;;;;;;;45.97;30.23;;;;;;;15.10;100.00;98899.91;5052563;28;20203;-53
2022/11/19 09:17:38;;;;;;;68.20;36.93;;;;;;;15.10;100.00;98897.28;5053082;28;20196;-53
2022/11/19 09:20:06;;;;;;;60.70;34.63;;;;;;;15.10;100.00;98894.69;5053309;28;20277;-53
2022/11/19 09:22:33;;;;;;;70.17;39.90;;;;;;;15.05;100.00;98904.53;5053216;28;20631;-53
2022/11/19 09:25:00;;;;;;;66.33;37.63;;;;;;;14.88;100.00;98915.94;5053156;28;20204;-52
2022/11/19 09:27:27;;;;;;;59.73;33.73;;;;;;;14.71;100.00;98892.53;5053018;28;20201;-52
2022/11/19 09:29:54;;;;;;;60.77;35.40;;;;;;;14.59;100.00;98899.25;5052441;28;20851;-52
2022/11/19 09:32:22;;;;;;;69.80;35.17;;;;;;;14.56;100.00;98893.38;5072393;28;20196;-52
2022/11/19 09:34:49;;;;;;;61.37;35.10;;;;;;;14.61;100.00;98883.50;5058089;28;20229;-53
2022/11/19 09:37:17;;;;;;;60.67;33.73;;;;;;;14.53;100.00;98879.56;5067066;28;20701;-51
2022/11/19 09:39:44;;;;;;;54.07;34.03;;;;;;;14.53;100.00;98886.56;5072677;28;20215;-55
2022/11/19 09:42:23;;;;;;;56.40;33.97;;;;;;;14.53;100.00;98887.41;5071368;28;20601;-54
2022/11/19 09:45:15;;;;;;;55.77;32.97;;;;;;;14.54;100.00;98888.25;5072194;28;20255;-55
2022/11/19 09:48:05;;;;;;;49.37;31.27;;;;;;;14.55;100.00;98882.09;5072416;28;20693;-55
2022/11/19 09:50:38;;;;;;;45.67;28.97;;;;;;;14.47;100.00;98863.38;5072271;28;20612;-51
2022/11/19 09:53:13;;;;;;;46.23;29.60;;;;;;;14.67;100.00;98873.56;5072287;28;20219;-51
2022/11/19 09:55:45;;;;;;;47.30;29.70;;;;;;;14.67;100.00;98864.91;5071902;28;20223;-52
2022/11/19 09:58:16;;;;;;;52.47;30.73;;;;;;;14.76;100.00;98862.63;5071946;28;20223;-52
2022/11/19 10:00:44;;;;;;;58.97;32.83;;;;;;;14.90;100.00;98864.44;5072034;28;20226;-52
2022/11/19 10:03:16;;;;;;;57.93;36.57;;;;;;;15.10;100.00;98865.94;5071636;28;20693;-51
2022/11/19 10:06:03;;;;;;;50.30;30.83;;;;;;;15.26;100.00;98844.03;5072387;28;20224;-52
2022/11/19 10:08:44;;;;;;;45.23;30.67;;;;;;;15.35;100.00;98847.03;5080911;28;20631;-52
2022/11/19 10:11:28;;;;;;;47.57;30.73;;;;;;;15.36;100.00;98841.69;5086627;28;20199;-53
2022/11/19 10:14:05;;;;;;;44.47;27.37;;;;;;;15.40;100.00;98858.91;5077676;28;20258;-53
2022/11/19 10:16:57;;;;;;;42.07;27.43;;;;;;;15.37;100.00;98856.47;5090517;28;20230;-52
2022/11/19 10:19:39;;;;;;;43.43;28.27;;;;;;;15.43;100.00;98857.88;5084884;28;20199;-54
2022/11/19 10:22:14;;;;;;;46.37;28.23;;;;;;;15.59;100.00;98859.53;5068739;28;20589;-55
2022/11/19 10:24:44;;;;;;;37.13;27.13;;;;;;;15.64;100.00;98851.41;5071741;28;20191;-52
2022/11/19 10:27:23;;;;;;;40.23;26.47;;;;;;;15.61;100.00;98841.13;5071166;28;20208;-52
2022/11/19 10:29:54;;;;;;;36.97;26.97;;;;;;;15.52;100.00;98834.66;5072114;28;20191;-53
2022/11/19 10:32:29;;;;;;;39.30;26.60;;;;;;;15.65;100.00;98850.47;5072239;28;20249;-53
2022/11/19 10:35:03;;;;;;;37.40;26.53;;;;;;;15.72;100.00;98845.72;5071972;28;20235;-52
2022/11/19 10:37:34;;;;;;;38.83;26.30;;;;;;;15.76;100.00;98842.81;5072365;28;20210;-54
2022/11/19 10:40:06;;;;;;;39.10;27.23;;;;;;;15.91;100.00;98849.72;5072439;28;20576;-53
2022/11/19 10:42:37;;;;;;;43.90;26.77;;;;;;;16.07;100.00;98854.03;5069127;28;20212;-53
2022/11/19 10:45:14;;;;;;;39.90;27.53;;;;;;;16.12;100.00;98850.22;5069990;28;20194;-53
2022/11/19 10:47:47;;;;;;;41.00;27.23;;;;;;;16.17;100.00;98834.19;5069900;28;20200;-51
2022/11/19 10:50:21;;;;;;;42.57;27.47;;;;;;;16.18;100.00;98820.16;5071597;28;20203;-52
2022/11/19 10:52:52;;;;;;;32.13;23.13;;;;;;;16.48;100.00;98841.78;5071953;28;20184;-52
2022/11/19 10:55:24;;;;;;;36.97;23.67;;;;;;;16.56;100.00;98841.34;5069232;28;20206;-53
2022/11/19 10:57:59;;;;;;;34.10;24.33;;;;;;;16.49;100.00;98840.88;5071665;28;20204;-52
2022/11/19 11:00:26;;;;;;;37.30;24.80;;;;;;;16.50;100.00;98842.53;5071438;28;20205;-51
2022/11/19 11:03:00;;;;;;;32.70;22.27;;;;;;;16.54;100.00;98840.59;5070969;28;20219;-53
2022/11/19 11:05:28;;;;;;;29.57;21.27;;;;;;;16.63;100.00;98835.63;5069564;28;20222;-52
2022/11/19 11:07:57;;;;;;;31.63;22.52;;;;;;;16.73;100.00;98829.78;5070591;28;20768;-56
2022/11/19 11:10:37;;;;;;;29.33;21.20;;;;;;;16.89;100.00;98820.00;5071029;28;20203;-56
2022/11/19 11:16:04;;;;;;;30.77;20.10;;;;;;;16.99;100.00;98813.19;5070565;28;20284;-56
2022/11/19 11:18:32;;;;;;;22.98;18.35;;;;;;;17.17;100.00;98819.00;5070988;28;20606;-56
2022/11/19 11:21:00;;;;;;;26.30;19.42;;;;;;;17.32;100.00;98829.31;5071000;28;20673;-56
2022/11/19 11:23:29;;;;;;;32.03;20.98;;;;;;;17.35;100.00;98828.28;5070075;28;20588;-56
2022/11/19 11:26:03;;;;;;;29.27;20.45;;;;;;;17.53;100.00;98828.78;5068173;28;20196;-55
2022/11/19 11:28:30;;;;;;;23.63;17.00;;;;;;;17.57;100.00;98832.91;5070851;28;20210;-56
2022/11/19 11:30:58;;;;;;;22.05;16.58;;;;;;;17.73;100.00;98823.06;5070862;28;20200;-57
2022/11/19 11:33:32;;;;;;;19.33;15.23;;;;;;;17.79;100.00;98814.78;5071134;28;20579;-56
2022/11/19 11:36:04;;;;;;;27.10;17.50;;;;;;;17.98;100.00;98836.16;5068297;28;20964;-55
2022/11/19 11:38:32;;;;;;;19.88;14.85;;;;;;;17.90;100.00;98827.16;5069777;28;20661;-55
2022/11/19 11:41:06;;;;;;;18.25;14.35;;;;;;;17.96;100.00;98835.44;5071082;28;20310;-56